createdAt,value
2019-05-12T00:01:48.242Z,9.66
2019-05-12T00:04:18.931Z,9.38
2019-05-12T00:06:48.445Z,9.49
2019-05-12T00:09:18.825Z,9.61
2019-05-12T00:11:48.541Z,9.67
2019-05-12T00:14:17.918Z,9.48
2019-05-12T00:16:49.156Z,9.58
2019-05-12T00:19:54.250Z,9.74
2019-05-12T00:22:25.307Z,9.60
2019-05-12T00:24:54.389Z,9.49
2019-05-12T00:27:24.670Z,9.47
2019-05-12T00:29:52.838Z,9.58
2019-05-12T00:32:22.311Z,9.68
2019-05-12T00:34:51.480Z,9.60
2019-05-12T00:37:20.425Z,9.57
2019-05-12T00:39:49.597Z,9.39
2019-05-12T00:42:18.625Z,9.35
2019-05-12T00:44:47.904Z,9.35
2019-05-12T00:47:18.769Z,9.38
2019-05-12T00:49:48.913Z,9.55
2019-05-12T00:52:19.694Z,9.62
2019-05-12T00:54:48.959Z,9.62
2019-05-12T00:57:18.246Z,9.61
2019-05-12T00:59:47.896Z,9.48
2019-05-12T01:02:18.296Z,9.37
2019-05-12T01:04:48.706Z,9.45
2019-05-12T01:07:18.342Z,9.54
2019-05-12T01:09:49.146Z,9.58
2019-05-12T01:12:18.422Z,9.73
2019-05-12T01:14:47.888Z,9.14
2019-05-12T01:17:17.730Z,9.42
2019-05-12T01:19:48.743Z,9.32
2019-05-12T01:22:18.689Z,9.27
2019-05-12T01:24:48.298Z,9.27
2019-05-12T01:27:18.075Z,9.45
2019-05-12T01:29:48.085Z,9.45
2019-05-12T01:32:29.500Z,9.27
2019-05-12T01:34:59.482Z,9.57
2019-05-12T01:37:29.978Z,9.60
2019-05-12T01:40:00.056Z,9.67
2019-05-12T01:42:29.390Z,9.57
2019-05-12T01:44:58.550Z,9.69
2019-05-12T01:47:28.947Z,9.60
2019-05-12T01:49:58.217Z,9.62
2019-05-12T01:52:28.606Z,9.61
2019-05-12T01:54:58.902Z,9.61
2019-05-12T01:57:28.901Z,9.73
2019-05-12T01:59:59.075Z,9.71
2019-05-12T02:02:28.596Z,9.69
2019-05-12T02:05:08.481Z,9.53
2019-05-12T02:07:49.459Z,9.39
2019-05-12T02:10:19.785Z,9.34
2019-05-12T02:12:49.220Z,9.59
2019-05-12T02:15:19.872Z,9.47
2019-05-12T02:17:48.677Z,9.58
2019-05-12T02:20:18.805Z,9.61
2019-05-12T02:22:48.891Z,9.61
2019-05-12T02:25:18.932Z,9.55
2019-05-12T02:27:47.906Z,9.39
2019-05-12T02:30:20.260Z,9.46
2019-05-12T02:32:57.311Z,9.58
2019-05-12T02:35:20.415Z,9.66
2019-05-12T02:37:49.423Z,9.64
2019-05-12T02:40:20.415Z,9.41
2019-05-12T02:42:49.559Z,9.61
2019-05-12T02:45:18.747Z,9.41
2019-05-12T02:47:47.697Z,9.62
2019-05-12T02:50:40.275Z,9.63
2019-05-12T02:53:09.400Z,9.64
2019-05-12T02:55:40.587Z,9.64
2019-05-12T02:58:15.156Z,9.48
2019-05-12T03:00:45.964Z,9.48
2019-05-12T03:03:19.065Z,9.48
2019-05-12T03:05:54.728Z,9.59
2019-05-12T03:08:25.591Z,9.24
2019-05-12T03:10:56.614Z,9.24
2019-05-12T03:13:25.664Z,9.58
2019-05-12T03:15:54.851Z,9.49
2019-05-12T03:18:25.275Z,9.49
2019-05-12T03:20:54.887Z,9.60
2019-05-12T03:23:24.976Z,9.50
2019-05-12T03:25:55.168Z,9.44
2019-05-12T03:28:25.575Z,9.41
2019-05-12T03:30:57.541Z,9.40
2019-05-12T03:33:33.325Z,9.56
2019-05-12T03:36:00.937Z,9.46
2019-05-12T03:38:27.947Z,9.33
2019-05-12T03:40:57.067Z,9.33
2019-05-12T03:43:26.060Z,9.47
2019-05-12T03:45:55.834Z,9.49
2019-05-12T03:48:25.382Z,9.30
2019-05-12T03:50:54.554Z,9.27
2019-05-12T03:53:24.685Z,9.27
2019-05-12T03:55:55.296Z,9.54
2019-05-12T03:58:25.561Z,9.47
2019-05-12T04:00:55.383Z,9.39
2019-05-12T04:03:24.843Z,9.37
2019-05-12T04:05:55.339Z,9.37
2019-05-12T04:08:24.803Z,9.30
2019-05-12T04:10:57.656Z,9.30
2019-05-12T04:13:26.861Z,9.59
2019-05-12T04:15:55.960Z,9.72
2019-05-12T04:18:30.469Z,9.55
2019-05-12T04:20:59.068Z,9.47
2019-05-12T04:23:27.908Z,9.57
2019-05-12T04:26:07.377Z,9.46
2019-05-12T04:28:27.555Z,9.44
2019-05-12T04:30:56.736Z,9.44
2019-05-12T04:33:25.777Z,9.41
2019-05-12T04:35:55.496Z,9.48
2019-05-12T04:38:24.814Z,9.39
2019-05-12T04:40:55.267Z,9.39
2019-05-12T04:43:25.455Z,9.55
2019-05-12T04:45:54.981Z,9.74
2019-05-12T04:48:25.834Z,9.55
2019-05-12T04:50:55.023Z,9.68
2019-05-12T04:53:25.208Z,9.62
2019-05-12T04:56:10.613Z,9.66
2019-05-12T04:58:30.020Z,9.73
2019-05-12T05:00:58.925Z,9.39
2019-05-12T05:03:27.937Z,9.54
2019-05-12T05:05:56.949Z,9.40
2019-05-12T05:08:26.217Z,9.52
2019-05-12T05:10:56.972Z,9.46
2019-05-12T05:13:25.964Z,9.50
2019-05-12T05:15:55.084Z,9.71
2019-05-12T05:18:24.729Z,9.60
2019-05-12T05:20:54.176Z,9.69
2019-05-12T05:23:24.112Z,9.66
2019-05-12T05:25:53.934Z,9.84
2019-05-12T05:28:23.618Z,10.04
2019-05-12T05:30:53.494Z,9.84
2019-05-12T05:33:23.853Z,9.68
2019-05-12T05:35:54.304Z,9.68
2019-05-12T05:38:24.712Z,9.75
2019-05-12T05:40:54.139Z,9.75
2019-05-12T05:43:24.187Z,9.79
2019-05-12T05:46:01.819Z,9.87
2019-05-12T05:48:24.591Z,9.58
2019-05-12T05:50:54.018Z,9.83
2019-05-12T05:53:24.275Z,9.83
2019-05-12T05:55:58.621Z,9.55
2019-05-12T05:58:26.162Z,9.96
2019-05-12T06:01:02.880Z,9.99
2019-05-12T06:03:28.124Z,10.07
2019-05-12T06:06:01.519Z,10.14
2019-05-12T06:08:28.468Z,10.35
2019-05-12T06:10:57.616Z,10.64
2019-05-12T06:13:30.474Z,11.02
2019-05-12T06:15:57.448Z,11.00
2019-05-12T06:18:29.056Z,10.89
2019-05-12T06:20:59.023Z,11.06
2019-05-12T06:23:28.983Z,11.13
2019-05-12T06:25:59.513Z,11.21
2019-05-12T06:28:31.048Z,11.01
2019-05-12T06:30:59.993Z,11.01
2019-05-12T06:33:31.448Z,11.00
2019-05-12T06:36:03.730Z,11.22
2019-05-12T06:38:37.146Z,11.36
2019-05-12T06:41:04.751Z,10.90
2019-05-12T06:43:35.296Z,11.30
2019-05-12T06:46:04.911Z,11.15
2019-05-12T06:48:34.116Z,11.25
2019-05-12T06:51:23.658Z,11.47
2019-05-12T06:53:53.535Z,12.15
2019-05-12T06:56:23.629Z,12.13
2019-05-12T06:58:53.502Z,12.13
2019-05-12T07:01:24.171Z,11.41
2019-05-12T07:03:53.680Z,11.41
2019-05-12T07:06:24.745Z,11.60
2019-05-12T07:09:03.444Z,11.64
2019-05-12T07:11:24.969Z,11.83
2019-05-12T07:14:04.029Z,12.47
2019-05-12T07:16:30.077Z,13.42
2019-05-12T07:18:55.907Z,16.31
2019-05-12T07:21:27.294Z,16.31
2019-05-12T07:24:00.370Z,18.86
2019-05-12T07:26:27.120Z,19.26
2019-05-12T07:28:56.577Z,18.82
2019-05-12T07:31:26.068Z,18.52
2019-05-12T07:33:55.596Z,18.52
2019-05-12T07:36:24.943Z,18.14
2019-05-12T07:39:03.790Z,18.14
2019-05-12T07:41:30.753Z,17.41
2019-05-12T07:44:00.941Z,17.49
2019-05-12T07:46:31.477Z,17.16
2019-05-12T07:49:00.579Z,17.06
2019-05-12T07:51:30.517Z,17.28
2019-05-12T07:54:01.054Z,17.28
2019-05-12T07:56:32.697Z,17.74
2019-05-12T07:59:04.209Z,18.08
2019-05-12T08:01:35.835Z,18.01
2019-05-12T08:04:04.539Z,19.28
2019-05-12T08:06:41.821Z,21.21
2019-05-12T08:09:08.112Z,23.52
2019-05-12T08:11:39.005Z,21.31
2019-05-12T08:14:13.754Z,18.98
2019-05-12T08:16:41.159Z,19.10
2019-05-12T08:19:14.991Z,19.56
2019-05-12T08:21:43.908Z,22.50
2019-05-12T08:24:14.323Z,26.93
2019-05-12T08:26:49.598Z,26.93
2019-05-12T08:29:21.435Z,27.85
2019-05-12T08:31:48.717Z,27.00
2019-05-12T08:34:17.864Z,24.54
2019-05-12T08:36:53.045Z,23.62
2019-05-12T08:39:22.739Z,25.04
2019-05-12T08:41:50.305Z,25.48
2019-05-12T08:44:24.606Z,29.47
2019-05-12T08:46:56.295Z,28.58
2019-05-12T08:49:23.625Z,25.52
2019-05-12T08:51:57.858Z,23.36
2019-05-12T08:54:24.133Z,25.46
2019-05-12T08:56:57.043Z,26.09
2019-05-12T08:59:27.302Z,24.62
2019-05-12T09:02:00.125Z,24.24
2019-05-12T09:04:26.404Z,23.00
2019-05-12T09:06:59.720Z,21.41
2019-05-12T09:09:26.589Z,23.23
2019-05-12T09:11:55.931Z,22.06
2019-05-12T09:14:25.846Z,22.06
2019-05-12T09:17:02.729Z,23.55
2019-05-12T09:19:27.191Z,26.54
2019-05-12T09:21:56.521Z,29.04
2019-05-12T09:24:27.380Z,26.75
2019-05-12T09:26:58.967Z,24.09
2019-05-12T09:29:26.992Z,22.66
2019-05-12T09:31:59.183Z,21.62
2019-05-12T09:34:27.616Z,19.87
2019-05-12T09:36:59.528Z,20.51
2019-05-12T09:39:27.753Z,21.06
2019-05-12T09:41:57.059Z,21.06
2019-05-12T09:44:30.376Z,21.15
2019-05-12T09:46:57.762Z,19.62
2019-05-12T09:49:30.946Z,19.62
2019-05-12T09:51:57.126Z,18.33
2019-05-12T09:54:35.436Z,18.81
2019-05-12T09:56:59.658Z,21.83
2019-05-12T09:59:29.159Z,21.54
2019-05-12T10:01:58.520Z,20.54
2019-05-12T10:04:27.762Z,20.59
2019-05-12T10:06:55.858Z,20.05
2019-05-12T10:09:24.998Z,19.71
2019-05-12T10:12:00.534Z,18.94
2019-05-12T10:14:25.537Z,19.43
2019-05-12T10:16:54.820Z,19.28
2019-05-12T10:19:24.096Z,18.95
2019-05-12T10:21:55.281Z,17.86
2019-05-12T10:24:25.149Z,17.08
2019-05-12T10:26:54.774Z,17.04
2019-05-12T10:29:29.321Z,15.99
2019-05-12T10:31:55.933Z,16.77
2019-05-12T10:34:29.281Z,16.77
2019-05-12T10:36:59.671Z,17.04
2019-05-12T10:39:33.482Z,18.59
2019-05-12T10:42:03.751Z,18.59
2019-05-12T10:44:40.127Z,18.47
2019-05-12T10:47:04.916Z,18.33
2019-05-12T10:49:35.142Z,17.43
2019-05-12T10:52:04.444Z,16.67
2019-05-12T10:54:34.301Z,15.64
2019-05-12T10:57:05.049Z,16.19
2019-05-12T10:59:38.882Z,16.25
2019-05-12T11:02:05.648Z,15.06
2019-05-12T11:04:38.985Z,13.85
2019-05-12T11:07:05.837Z,13.61
2019-05-12T11:09:35.926Z,13.61
2019-05-12T11:12:05.023Z,13.27
2019-05-12T11:14:34.550Z,13.26
2019-05-12T11:17:07.715Z,13.67
2019-05-12T11:19:40.637Z,13.68
2019-05-12T11:22:07.881Z,14.02
2019-05-12T11:24:37.095Z,14.16
2019-05-12T11:27:06.249Z,13.90
2019-05-12T11:29:45.664Z,13.90
2019-05-12T11:32:06.244Z,14.10
2019-05-12T11:34:35.757Z,13.51
2019-05-12T11:37:04.956Z,13.66
2019-05-12T11:39:37.100Z,13.64
2019-05-12T11:42:04.965Z,14.10
2019-05-12T11:44:34.065Z,14.34
2019-05-12T11:47:03.728Z,14.96
2019-05-12T11:49:33.603Z,17.00
2019-05-12T11:52:07.465Z,21.25
2019-05-12T11:54:33.577Z,21.25
2019-05-12T11:57:03.065Z,21.35
2019-05-12T11:59:34.005Z,21.35
2019-05-12T12:02:03.302Z,22.13
2019-05-12T12:04:57.955Z,22.87
2019-05-12T12:07:26.894Z,21.87
2019-05-12T12:09:59.294Z,19.97
2019-05-12T12:12:29.755Z,17.62
2019-05-12T12:14:57.999Z,17.62
2019-05-12T12:17:30.902Z,16.57
2019-05-12T12:19:57.969Z,16.70
2019-05-12T12:22:29.880Z,16.51
2019-05-12T12:25:04.699Z,16.40
2019-05-12T12:27:28.845Z,16.87
2019-05-12T12:29:57.718Z,17.72
2019-05-12T12:32:25.863Z,21.15
2019-05-12T12:34:54.788Z,22.79
2019-05-12T12:37:24.424Z,22.40
2019-05-12T12:39:53.867Z,21.03
2019-05-12T12:42:24.211Z,20.09
2019-05-12T12:44:58.147Z,19.71
2019-05-12T12:47:24.761Z,18.56
2019-05-12T12:49:54.633Z,16.51
2019-05-12T12:52:24.377Z,16.77
2019-05-12T12:54:54.314Z,19.34
2019-05-12T12:57:29.853Z,21.07
2019-05-12T12:59:55.483Z,22.05
2019-05-12T13:02:24.886Z,21.00
2019-05-12T13:04:53.987Z,22.16
2019-05-12T13:07:24.172Z,23.87
2019-05-12T13:09:55.013Z,24.81
2019-05-12T13:12:23.950Z,25.08
2019-05-12T13:14:53.276Z,25.69
2019-05-12T13:17:29.055Z,24.78
2019-05-12T13:19:54.716Z,23.73
2019-05-12T13:22:24.613Z,21.45
2019-05-12T13:24:58.160Z,20.31
2019-05-12T13:27:28.973Z,19.42
2019-05-12T13:29:55.574Z,18.52
2019-05-12T13:32:32.044Z,19.97
2019-05-12T13:34:54.985Z,19.97
2019-05-12T13:37:24.066Z,20.57
2019-05-12T13:39:58.526Z,22.31
2019-05-12T13:42:24.211Z,22.25
2019-05-12T13:44:53.445Z,22.19
2019-05-12T13:47:22.573Z,22.29
2019-05-12T13:49:50.915Z,18.89
2019-05-12T13:52:26.299Z,18.89
2019-05-12T13:54:52.151Z,18.18
2019-05-12T13:57:23.475Z,17.39
2019-05-12T13:59:53.768Z,16.73
2019-05-12T14:02:23.558Z,17.83
2019-05-12T14:04:53.618Z,16.84
2019-05-12T14:07:23.661Z,17.32
2019-05-12T14:09:51.905Z,17.32
2019-05-12T14:12:21.106Z,17.65
2019-05-12T14:14:50.536Z,17.11
2019-05-12T14:17:19.985Z,17.27
2019-05-12T14:19:48.971Z,17.44
2019-05-12T14:22:26.228Z,17.55
2019-05-12T14:24:49.480Z,18.14
2019-05-12T14:27:18.994Z,17.61
2019-05-12T14:29:48.850Z,17.40
2019-05-12T14:32:19.200Z,17.41
2019-05-12T14:34:58.683Z,17.04
2019-05-12T14:37:24.325Z,17.35
2019-05-12T14:39:53.765Z,17.98
2019-05-12T14:42:26.117Z,18.30
2019-05-12T14:44:54.147Z,17.54
2019-05-12T14:47:25.755Z,16.52
2019-05-12T14:49:55.101Z,17.51
2019-05-12T14:52:24.175Z,17.51
2019-05-12T14:54:54.184Z,17.37
2019-05-12T14:57:29.296Z,17.45
2019-05-12T14:59:57.979Z,17.95
2019-05-12T15:02:29.379Z,17.89
2019-05-12T15:05:00.230Z,17.45
2019-05-12T15:07:30.457Z,17.63
2019-05-12T15:10:02.284Z,17.75
2019-05-12T15:12:30.005Z,18.29
2019-05-12T15:14:59.534Z,16.75
2019-05-12T15:17:27.910Z,16.10
2019-05-12T15:20:00.216Z,16.10
2019-05-12T15:22:28.100Z,17.17
2019-05-12T15:24:59.000Z,17.77
2019-05-12T15:27:42.088Z,17.92
2019-05-12T15:29:59.914Z,17.73
2019-05-12T15:32:29.624Z,17.73
2019-05-12T15:34:58.030Z,17.92
2019-05-12T15:37:29.027Z,16.71
2019-05-12T15:40:06.706Z,17.24
2019-05-12T15:42:35.093Z,17.26
2019-05-12T15:45:11.146Z,17.49
2019-05-12T15:47:37.311Z,18.03
2019-05-12T15:50:07.911Z,18.23
2019-05-12T15:52:42.231Z,17.42
2019-05-12T15:55:09.294Z,17.37
2019-05-12T15:57:38.636Z,16.96
2019-05-12T16:00:10.303Z,18.33
2019-05-12T16:02:39.460Z,18.33
2019-05-12T16:05:08.901Z,18.37
2019-05-12T16:07:39.589Z,18.66
2019-05-12T16:10:11.513Z,17.58
2019-05-12T16:12:42.925Z,16.64
2019-05-12T16:15:17.048Z,17.47
2019-05-12T16:17:44.113Z,17.64
2019-05-12T16:20:14.470Z,17.37
2019-05-12T16:22:45.112Z,16.44
2019-05-12T16:25:15.448Z,16.44
2019-05-12T16:27:45.142Z,17.63
2019-05-12T16:30:20.229Z,18.01
2019-05-12T16:32:48.520Z,18.14
2019-05-12T16:35:25.552Z,17.92
2019-05-12T16:37:50.139Z,17.94
2019-05-12T16:40:19.671Z,17.55
2019-05-12T16:42:53.577Z,16.30
2019-05-12T16:45:20.248Z,16.30
2019-05-12T16:47:50.076Z,16.52
2019-05-12T16:50:25.404Z,16.34
2019-05-12T16:52:50.777Z,16.12
2019-05-12T16:55:20.892Z,16.70
2019-05-12T16:57:52.939Z,17.39
2019-05-12T17:00:24.220Z,17.75
2019-05-12T17:02:57.779Z,18.10
2019-05-12T17:05:25.554Z,18.54
2019-05-12T17:07:55.813Z,18.38
2019-05-12T17:10:25.074Z,18.09
2019-05-12T17:12:54.463Z,16.96
2019-05-12T17:15:23.717Z,16.86
2019-05-12T17:17:56.969Z,17.16
2019-05-12T17:20:23.006Z,17.16
2019-05-12T17:22:55.185Z,16.66
2019-05-12T17:25:24.586Z,16.74
2019-05-12T17:27:52.997Z,16.14
2019-05-12T17:30:23.909Z,16.14
2019-05-12T17:33:00.631Z,16.16
2019-05-12T17:35:31.459Z,15.62
2019-05-12T17:37:57.034Z,15.62
2019-05-12T17:40:26.504Z,15.37
2019-05-12T17:42:59.829Z,15.45
2019-05-12T17:45:33.747Z,15.41
2019-05-12T17:48:07.436Z,15.38
2019-05-12T17:50:34.716Z,15.04
2019-05-12T17:53:04.527Z,14.74
2019-05-12T17:55:33.210Z,15.08
2019-05-12T17:58:04.122Z,15.08
2019-05-12T18:00:33.628Z,14.91
2019-05-12T18:03:15.695Z,15.09
2019-05-12T18:05:34.073Z,15.18
2019-05-12T18:08:04.309Z,14.92
2019-05-12T18:10:37.852Z,15.12
2019-05-12T18:13:04.040Z,15.08
2019-05-12T18:15:37.709Z,15.08
2019-05-12T18:18:04.202Z,15.06
2019-05-12T18:20:40.022Z,14.86
2019-05-12T18:23:05.695Z,14.86
2019-05-12T18:25:36.854Z,14.58
2019-05-12T18:28:06.303Z,14.34
2019-05-12T18:30:35.166Z,14.55
2019-05-12T18:33:09.136Z,14.41
2019-05-12T18:35:36.445Z,14.33
2019-05-12T18:38:07.913Z,14.17
2019-05-12T18:40:36.582Z,14.27
2019-05-12T18:43:06.790Z,13.99
2019-05-12T18:45:35.778Z,13.99
2019-05-12T18:48:08.303Z,13.89
2019-05-12T18:50:36.738Z,13.80
2019-05-12T18:53:05.747Z,13.49
2019-05-12T18:55:35.870Z,13.54
2019-05-12T18:58:05.490Z,13.34
2019-05-12T19:00:35.553Z,13.10
2019-05-12T19:03:08.694Z,13.05
2019-05-12T19:05:36.010Z,13.05
2019-05-12T19:08:05.585Z,13.16
2019-05-12T19:10:38.562Z,12.61
2019-05-12T19:13:06.749Z,12.61
2019-05-12T19:15:36.146Z,12.93
2019-05-12T19:18:05.772Z,12.90
2019-05-12T19:20:36.291Z,12.77
2019-05-12T19:23:07.331Z,12.30
2019-05-12T19:25:40.801Z,11.98
2019-05-12T19:29:06.203Z,11.77
2019-05-12T19:31:36.687Z,12.10
2019-05-12T19:44:38.629Z,11.28
2019-05-12T19:47:21.292Z,11.28
2019-05-12T19:49:50.711Z,11.12
2019-05-12T19:52:20.993Z,11.27
2019-05-12T19:54:51.060Z,11.32
2019-05-12T19:57:21.946Z,11.21
2019-05-12T19:59:55.818Z,11.16
2019-05-12T20:02:24.159Z,11.16
2019-05-12T20:04:56.597Z,11.17
2019-05-12T20:07:24.609Z,10.97
2019-05-12T20:09:58.671Z,10.93
2019-05-12T20:13:35.878Z,10.93
2019-05-12T20:16:04.720Z,10.85
2019-05-12T20:18:34.346Z,10.71
2019-05-12T20:21:04.592Z,10.54
2019-05-12T20:23:33.803Z,10.52
2019-05-12T20:26:03.972Z,10.52
2019-05-12T20:28:34.688Z,10.49
2019-05-12T20:31:06.122Z,10.33
2019-05-12T20:33:35.476Z,10.34
2019-05-12T20:36:04.597Z,10.23
2019-05-12T20:38:36.232Z,10.15
2019-05-12T20:41:04.805Z,10.23
2019-05-12T20:43:38.097Z,10.28
2019-05-12T20:46:13.035Z,10.30
2019-05-12T20:48:40.309Z,10.40
2019-05-12T20:51:15.313Z,10.33
2019-05-12T20:53:40.824Z,10.26
2019-05-12T20:56:12.220Z,10.21
2019-05-12T20:58:45.813Z,10.29
2019-05-12T21:01:13.910Z,10.38
2019-05-12T21:03:46.246Z,10.15
2019-05-12T21:06:16.632Z,10.36
2019-05-12T21:08:53.315Z,10.48
2019-05-12T21:11:17.520Z,10.44
2019-05-12T21:13:47.186Z,10.01
2019-05-12T21:16:20.282Z,10.13
2019-05-12T21:18:56.156Z,10.04
2019-05-12T21:21:27.271Z,9.99
2019-05-12T21:23:53.882Z,10.17
2019-05-12T21:26:28.555Z,10.34
2019-05-12T21:28:54.725Z,10.62
2019-05-12T21:31:26.696Z,10.38
2019-05-12T21:33:54.140Z,10.37
2019-05-12T21:36:26.792Z,10.26
2019-05-12T21:38:59.617Z,10.38
2019-05-12T21:41:26.302Z,10.38
2019-05-12T21:44:00.162Z,10.46
2019-05-12T21:46:26.523Z,10.26
2019-05-12T21:48:56.232Z,10.29
2019-05-12T21:51:26.546Z,10.19
2019-05-12T21:53:57.646Z,10.30
2019-05-12T21:56:26.753Z,9.81
2019-05-12T21:58:58.234Z,9.81
2019-05-12T22:01:26.305Z,10.02
2019-05-12T22:04:02.060Z,10.11
2019-05-12T22:06:26.466Z,9.77
2019-05-12T22:09:01.596Z,9.77
2019-05-12T22:11:34.654Z,9.64
2019-05-12T22:14:05.128Z,9.57
2019-05-12T22:16:43.253Z,9.30
2019-05-12T22:19:07.908Z,9.31
2019-05-12T22:21:47.566Z,9.31
2019-05-12T22:24:10.620Z,9.18
2019-05-12T22:26:43.480Z,9.31
2019-05-12T22:29:13.384Z,9.31
2019-05-12T22:31:48.228Z,8.97
2019-05-12T22:34:16.923Z,9.17
2019-05-12T22:37:06.139Z,9.29
2019-05-12T22:39:37.294Z,9.23
2019-05-12T22:42:11.618Z,9.22
2019-05-12T22:44:39.085Z,9.00
2019-05-12T22:47:12.700Z,9.12
2019-05-12T22:49:40.494Z,8.98
2019-05-12T22:52:09.586Z,8.74
2019-05-12T22:54:40.501Z,9.05
2019-05-12T22:57:09.136Z,9.16
2019-05-12T22:59:40.631Z,9.39
2019-05-12T23:02:09.439Z,8.88
2019-05-12T23:04:40.601Z,9.04
2019-05-12T23:07:10.021Z,9.00
2019-05-12T23:09:39.443Z,8.95
2019-05-12T23:12:09.782Z,8.84
2019-05-12T23:14:39.513Z,8.95
2019-05-12T23:17:08.410Z,8.93
2019-05-12T23:22:35.132Z,9.11
2019-05-12T23:25:03.828Z,9.04
2019-05-12T23:27:33.372Z,8.80
2019-05-12T23:30:10.941Z,8.63
2019-05-12T23:32:34.606Z,8.65
2019-05-12T23:35:03.903Z,8.64
2019-05-12T23:37:36.162Z,8.64
2019-05-12T23:40:04.410Z,8.55
2019-05-12T23:42:34.338Z,8.86
2019-05-12T23:45:03.849Z,8.86
2019-05-12T23:47:34.305Z,8.83
2019-05-12T23:50:04.299Z,8.92
2019-05-12T23:52:34.603Z,9.07
2019-05-12T23:55:04.541Z,8.95
2019-05-12T23:57:33.812Z,8.95
